Time;durP1;ratioP1;P1;durP2;ratioP2;P2;SDS_P1;SDS_P2;PMS_P1;PMS_P2;Temp;Humidity;BMP_temperature;BMP_pressure;BME280_temperature;BME280_humidity;BME280_pressure;Samples;Min_cycle;Max_cycle;Signal;HPM_P1;HPM_P2
2023/01/27 00:01:01;;;;;;;1999.90;999.90;;;;;;;0.69;100.00;97727.28;5104019;28;20472;-76
2023/01/27 00:03:27;;;;;;;1999.90;999.90;;;;;;;0.69;100.00;97732.66;5093073;28;20028;-74
2023/01/27 00:05:52;;;;;;;1999.90;999.90;;;;;;;0.73;100.00;97722.25;5092422;28;20031;-76
2023/01/27 00:08:18;;;;;;;1999.90;999.90;;;;;;;0.77;100.00;97726.09;5113006;28;20448;-75
2023/01/27 00:10:43;;;;;;;1999.90;999.90;;;;;;;0.67;100.00;97724.03;5112964;28;20031;-77
2023/01/27 00:13:27;;;;;;;1999.90;999.90;;;;;;;0.72;100.00;97718.72;5105744;28;20118;-75
2023/01/27 00:15:52;;;;;;;1999.90;999.90;;;;;;;0.69;100.00;97724.59;5113323;28;20043;-76
2023/01/27 00:18:17;;;;;;;1999.90;999.90;;;;;;;0.68;100.00;97720.28;5113293;28;20499;-76
2023/01/27 00:26:17;;;;;;;1999.90;999.90;;;;;;;0.68;100.00;97728.34;5113790;28;20077;-75
2023/01/27 00:28:44;;;;;;;1999.90;999.90;;;;;;;0.60;100.00;97717.94;5114542;28;20027;-77
2023/01/27 00:34:00;;;;;;;1999.90;999.90;;;;;;;0.64;100.00;97721.81;5114084;28;20072;-74
2023/01/27 00:36:29;;;;;;;1999.90;999.90;;;;;;;0.59;100.00;97713.66;5113148;28;20028;-76
2023/01/27 00:38:55;;;;;;;1999.90;999.90;;;;;;;0.65;100.00;97723.44;5114745;28;20066;-74
2023/01/27 00:41:22;;;;;;;1999.90;999.90;;;;;;;0.63;100.00;97725.53;5114911;28;20051;-75
2023/01/27 00:43:49;;;;;;;1999.90;999.90;;;;;;;0.59;100.00;97713.66;5113921;28;20449;-75
2023/01/27 00:46:16;;;;;;;1999.90;999.90;;;;;;;0.60;100.00;97726.03;5112769;28;20040;-76
2023/01/27 00:48:42;;;;;;;1999.90;999.90;;;;;;;0.58;100.00;97714.69;5112519;28;20085;-77
2023/01/27 00:51:08;;;;;;;1999.90;999.90;;;;;;;0.57;100.00;97720.28;5112455;28;20444;-75
2023/01/27 00:53:33;;;;;;;1999.90;999.90;;;;;;;0.56;100.00;97719.50;5111053;28;20031;-75
2023/01/27 00:55:58;;;;;;;1999.90;999.90;;;;;;;0.52;100.00;97702.19;5112366;28;20054;-74
2023/01/27 00:58:25;;;;;;;1999.90;999.90;;;;;;;0.46;100.00;97703.13;5112155;28;20036;-76
2023/01/27 01:00:58;;;;;;;1999.90;999.90;;;;;;;0.59;100.00;97719.03;5112114;28;20472;-78
2023/01/27 01:03:25;;;;;;;1999.90;999.90;;;;;;;0.55;100.00;97715.16;5112355;28;20101;-76
2023/01/27 01:05:51;;;;;;;1999.90;999.90;;;;;;;0.59;100.00;97724.41;5112458;28;20028;-75
2023/01/27 01:08:16;;;;;;;1999.90;999.90;;;;;;;0.56;100.00;97719.50;5111864;28;20127;-74
2023/01/27 01:10:42;;;;;;;1999.90;999.90;;;;;;;0.56;100.00;97719.50;5112220;28;20468;-74
2023/01/27 01:13:09;;;;;;;1999.90;999.90;;;;;;;0.54;100.00;97711.66;5111017;28;20499;-75
2023/01/27 01:15:35;;;;;;;1999.90;999.90;;;;;;;0.54;100.00;97718.91;5118816;28;20422;-76
2023/01/27 01:18:02;;;;;;;1999.90;999.90;;;;;;;0.54;100.00;97716.22;5112276;28;20136;-74
2023/01/27 01:20:28;;;;;;;1999.90;999.90;;;;;;;0.50;100.00;97712.38;5111846;28;20126;-77
2023/01/27 01:22:53;;;;;;;1999.90;999.90;;;;;;;0.53;100.00;97709.22;5111991;28;20115;-74
2023/01/27 01:25:19;;;;;;;1999.90;999.90;;;;;;;0.55;100.00;97712.47;5110772;28;20418;-76
2023/01/27 01:27:44;;;;;;;1999.90;999.90;;;;;;;0.56;100.00;97714.13;5111875;28;20038;-75
2023/01/27 01:30:10;;;;;;;1999.90;999.90;;;;;;;0.60;100.00;97719.81;5111744;28;20066;-75
2023/01/27 01:32:35;;;;;;;1999.90;999.90;;;;;;;0.52;100.00;97715.63;5110001;28;20039;-76
2023/01/27 01:35:01;;;;;;;1999.90;999.90;;;;;;;0.51;100.00;97708.63;5111391;28;20031;-75
2023/01/27 01:37:26;;;;;;;1999.90;999.90;;;;;;;0.50;100.00;97709.69;5111548;28;20032;-76
2023/01/27 01:39:51;;;;;;;1999.90;999.90;;;;;;;0.51;100.00;97711.31;5111477;28;20471;-76
2023/01/27 01:42:17;;;;;;;1999.90;999.90;;;;;;;0.50;100.00;97709.69;5111436;28;20050;-77
2023/01/27 01:44:44;;;;;;;1999.90;999.90;;;;;;;0.48;100.00;97706.41;5111405;28;20034;-76
2023/01/27 01:47:16;;;;;;;1999.90;999.90;;;;;;;0.51;100.00;97705.94;5112656;28;20475;-76
2023/01/27 01:49:44;;;;;;;1999.90;999.90;;;;;;;0.44;100.00;97697.16;5111576;28;20433;-76
2023/01/27 01:52:16;;;;;;;1999.90;999.90;;;;;;;0.44;100.00;97694.47;5109908;28;20008;-76
2023/01/27 01:54:50;;;;;;;1999.90;999.90;;;;;;;0.36;100.00;97702.91;5111529;28;20134;-76
2023/01/27 01:57:27;;;;;;;1999.90;999.90;;;;;;;0.40;100.00;97693.34;5111259;28;20048;-75
2023/01/27 02:00:00;;;;;;;1999.90;999.90;;;;;;;0.39;100.00;97691.69;5111090;28;20023;-76
2023/01/27 02:02:26;;;;;;;1999.90;999.90;;;;;;;0.32;100.00;97694.50;5109703;28;20468;-75
2023/01/27 02:05:01;;;;;;;1999.90;999.90;;;;;;;0.31;100.00;97689.38;5110598;28;20023;-76
2023/01/27 02:07:34;;;;;;;1999.90;999.90;;;;;;;0.36;100.00;97697.53;5110564;28;20054;-76
2023/01/27 02:10:00;;;;;;;1999.90;999.90;;;;;;;0.37;100.00;97688.44;5111089;28;20035;-76
2023/01/27 02:12:26;;;;;;;1999.90;999.90;;;;;;;0.34;100.00;97694.28;5109214;28;20077;-76
2023/01/27 02:14:52;;;;;;;1999.90;999.90;;;;;;;0.25;100.00;97685.75;5111306;28;20031;-75
2023/01/27 02:17:18;;;;;;;1999.90;999.90;;;;;;;0.30;100.00;97690.41;5109562;28;20027;-75
2023/01/27 02:19:59;;;;;;;1999.90;999.90;;;;;;;0.32;100.00;97696.38;5110953;28;20062;-75
2023/01/27 02:22:54;;;;;;;1999.90;999.90;;;;;;;0.37;100.00;97691.13;5111186;28;20034;-76
2023/01/27 02:25:58;;;;;;;1999.90;999.90;;;;;;;0.20;100.00;97671.38;5109830;28;20100;-75
2023/01/27 02:28:26;;;;;;;1999.90;999.90;;;;;;;0.32;100.00;97699.06;5109881;28;20039;-76
2023/01/27 02:30:52;;;;;;;1999.90;999.90;;;;;;;0.33;100.00;97690.78;5110559;28;20027;-77
2023/01/27 02:33:17;;;;;;;1999.90;999.90;;;;;;;0.24;100.00;97683.31;5110958;28;20036;-77
2023/01/27 02:35:58;;;;;;;1999.90;999.90;;;;;;;0.30;100.00;97687.72;5109520;28;20016;-76
2023/01/27 02:38:28;;;;;;;1999.90;999.90;;;;;;;0.26;100.00;97684.69;5110920;28;20204;-76
2023/01/27 02:40:59;;;;;;;1999.90;999.90;;;;;;;0.27;100.00;97682.81;5110910;28;20035;-75
2023/01/27 02:43:24;;;;;;;1999.90;999.90;;;;;;;0.27;100.00;97672.06;5111240;28;20032;-75
2023/01/27 02:45:49;;;;;;;1999.90;999.90;;;;;;;0.29;100.00;97681.53;5110881;28;20380;-75
2023/01/27 02:48:15;;;;;;;1999.90;999.90;;;;;;;0.18;100.00;97663.56;5110782;28;20365;-76
2023/01/27 02:50:40;;;;;;;1999.90;999.90;;;;;;;0.21;100.00;97659.56;5110772;28;20019;-75
2023/01/27 02:53:06;;;;;;;1999.90;999.90;;;;;;;0.17;100.00;97663.78;5110511;28;20396;-75
2023/01/27 02:55:31;;;;;;;1999.90;999.90;;;;;;;0.23;100.00;97671.72;5110824;28;20027;-76
2023/01/27 02:57:57;;;;;;;1999.90;999.90;;;;;;;0.27;100.00;97661.31;5113611;28;20027;-76
2023/01/27 03:00:22;;;;;;;1999.90;999.90;;;;;;;0.30;100.00;97660.84;5114653;28;20223;-77
2023/01/27 03:02:48;;;;;;;1999.90;999.90;;;;;;;0.18;100.00;97654.66;5121224;28;20447;-77
2023/01/27 03:05:14;;;;;;;1999.90;999.90;;;;;;;0.17;100.00;97666.47;5116729;28;20023;-76
2023/01/27 03:07:39;;;;;;;1999.90;999.90;;;;;;;0.18;100.00;97660.88;5114440;28;20039;-75
2023/01/27 03:10:05;;;;;;;1999.90;999.90;;;;;;;0.16;100.00;97662.16;5114363;28;20468;-75
2023/01/27 03:12:30;;;;;;;1999.90;999.90;;;;;;;0.15;100.00;97668.59;5112885;28;20432;-77
2023/01/27 03:20:23;;;;;;;1999.90;999.90;;;;;;;0.17;100.00;97666.47;5114077;28;20397;-76
2023/01/27 03:22:49;;;;;;;1999.90;999.90;;;;;;;0.16;100.00;97656.78;5114081;28;20028;-77
2023/01/27 03:25:15;;;;;;;1999.90;999.90;;;;;;;0.14;100.00;97645.44;5114238;28;20024;-75
2023/01/27 03:27:40;;;;;;;1999.90;999.90;;;;;;;0.13;100.00;97650.00;5114036;28;20018;-75
2023/01/27 03:30:08;;;;;;;1999.90;999.90;;;;;;;0.15;100.00;97650.59;5114012;28;20031;-75
2023/01/27 03:32:34;;;;;;;1999.90;999.90;;;;;;;0.11;100.00;97648.59;5113939;28;20473;-78
2023/01/27 03:35:00;;;;;;;1999.90;999.90;;;;;;;0.11;100.00;97645.91;5113911;28;20032;-76
2023/01/27 03:48:32;;;;;;;1999.90;999.90;;;;;;;-0.01;100.00;97654.81;5114109;28;20030;-76
2023/01/27 03:50:58;;;;;;;1999.90;999.90;;;;;;;-0.06;100.00;97643.94;5114031;28;20107;-75
2023/01/27 03:53:23;;;;;;;1999.90;999.90;;;;;;;-0.02;100.00;97655.03;5113501;28;20077;-77
2023/01/27 03:55:49;;;;;;;1999.90;999.90;;;;;;;-0.04;100.00;97652.59;5113461;28;20035;-76
2023/01/27 03:58:21;;;;;;;1999.90;999.90;;;;;;;0.00;100.00;97656.44;5113228;28;20074;-77
2023/01/27 04:00:50;;;;;;;1999.90;999.90;;;;;;;-0.08;100.00;97638.00;5113549;28;20038;-76
2023/01/27 04:08:49;;;;;;;1999.90;999.90;;;;;;;-0.02;100.00;97658.56;5092541;28;20043;-76
2023/01/27 04:14:04;;;;;;;1999.90;999.90;;;;;;;0.03;100.00;97646.28;5094364;28;20795;-75
2023/01/27 04:16:29;;;;;;;1999.90;999.90;;;;;;;-0.05;100.00;97642.91;5093605;28;20499;-76
2023/01/27 04:18:56;;;;;;;1999.90;999.90;;;;;;;0.02;100.00;97650.00;5092605;28;20032;-75
2023/01/27 04:21:21;;;;;;;1999.90;999.90;;;;;;;-0.03;100.00;97656.09;5098822;28;20100;-76
2023/01/27 04:23:47;;;;;;;1999.90;999.90;;;;;;;-0.02;100.00;97647.81;5112973;28;20102;-76
2023/01/27 04:26:12;;;;;;;1999.90;999.90;;;;;;;-0.02;100.00;97663.94;5097364;28;20088;-75
2023/01/27 04:28:37;;;;;;;1999.90;999.90;;;;;;;-0.02;100.00;97655.88;5092450;28;20052;-75
2023/01/27 04:31:03;;;;;;;1999.90;999.90;;;;;;;-0.06;100.00;97654.69;5092323;28;20119;-74
2023/01/27 04:33:28;;;;;;;1999.90;999.90;;;;;;;0.06;100.00;97656.56;5092322;28;20135;-74
2023/01/27 04:35:54;;;;;;;1999.90;999.90;;;;;;;0.06;100.00;97653.88;5092664;28;20024;-74
2023/01/27 04:38:19;;;;;;;1999.90;999.90;;;;;;;-0.01;100.00;97649.44;5091512;28;20469;-74
2023/01/27 04:40:45;;;;;;;1999.90;999.90;;;;;;;0.07;100.00;97644.72;5092624;28;20028;-75
2023/01/27 04:43:10;;;;;;;1999.90;999.90;;;;;;;0.07;100.00;97655.50;5092401;28;20032;-75
2023/01/27 04:45:35;;;;;;;1999.90;999.90;;;;;;;0.08;100.00;97652.59;5074866;28;20055;-76
2023/01/27 04:48:01;;;;;;;1999.90;999.90;;;;;;;0.05;100.00;97657.59;5092739;28;20028;-75
2023/01/27 04:50:26;;;;;;;1999.90;999.90;;;;;;;0.04;100.00;97664.03;5102725;28;20016;-75
2023/01/27 04:52:51;;;;;;;1999.90;999.90;;;;;;;0.07;100.00;97669.75;5097315;28;20032;-76
2023/01/27 04:55:17;;;;;;;1999.90;999.90;;;;;;;0.05;100.00;97668.38;5092018;28;20059;-76
2023/01/27 04:57:42;;;;;;;1999.90;999.90;;;;;;;0.10;100.00;97665.78;5091796;28;20445;-75
2023/01/27 05:00:11;;;;;;;1999.90;999.90;;;;;;;0.10;100.00;97676.53;5092003;28;20534;-74
2023/01/27 05:02:37;;;;;;;1999.90;999.90;;;;;;;0.12;100.00;97671.75;5093918;28;20464;-76
2023/01/27 05:05:05;;;;;;;1999.90;999.90;;;;;;;0.03;100.00;97671.31;5112440;28;20127;-74
2023/01/27 05:07:31;;;;;;;1999.90;999.90;;;;;;;0.17;100.00;97671.84;5112146;28;20404;-76
2023/01/27 05:09:57;;;;;;;1999.90;999.90;;;;;;;0.16;100.00;97679.09;5112276;28;20076;-75
2023/01/27 05:12:22;;;;;;;1999.90;999.90;;;;;;;0.22;100.00;97677.34;5112159;28;20411;-74
2023/01/27 05:14:47;;;;;;;1999.90;999.90;;;;;;;0.09;100.00;97664.97;5112474;28;20024;-75
2023/01/27 05:17:14;;;;;;;1999.90;999.90;;;;;;;0.11;100.00;97664.72;5110591;28;20082;-74
2023/01/27 05:19:39;;;;;;;1999.90;999.90;;;;;;;0.17;100.00;97667.28;5111006;28;20107;-75
2023/01/27 05:22:04;;;;;;;1999.90;999.90;;;;;;;0.04;100.00;97669.41;5094205;28;20085;-75
2023/01/27 05:24:30;;;;;;;1999.90;999.90;;;;;;;0.00;100.00;97683.31;5092116;28;20362;-76
2023/01/27 05:26:56;;;;;;;1999.90;999.90;;;;;;;0.03;100.00;97686.59;5091576;28;20034;-75
2023/01/27 05:29:22;;;;;;;1999.90;999.90;;;;;;;0.02;100.00;97690.34;5090304;28;20039;-76
2023/01/27 05:31:47;;;;;;;1999.90;999.90;;;;;;;-0.11;100.00;97678.78;5091126;28;20020;-75
2023/01/27 05:34:12;;;;;;;1999.90;999.90;;;;;;;-0.08;100.00;97683.69;5091415;28;20488;-75
2023/01/27 05:36:38;;;;;;;1999.90;999.90;;;;;;;-0.08;100.00;97682.84;5091338;28;20031;-75
2023/01/27 05:39:03;;;;;;;1999.90;999.90;;;;;;;-0.10;100.00;97688.47;5090538;28;20124;-75
2023/01/27 05:41:32;;;;;;;1999.90;999.90;;;;;;;-0.03;100.00;97681.09;5090201;28;20028;-76
2023/01/27 05:43:58;;;;;;;1999.90;999.90;;;;;;;-0.06;100.00;97689.63;5095319;28;20578;-75
2023/01/27 05:46:26;;;;;;;1999.90;999.90;;;;;;;-0.08;100.00;97694.44;5091416;28;20107;-75
2023/01/27 05:48:54;;;;;;;1999.90;999.90;;;;;;;-0.04;100.00;97684.84;5091127;28;20484;-75
2023/01/27 05:51:22;;;;;;;1999.90;999.90;;;;;;;-0.04;100.00;97692.91;5091350;28;20036;-75
2023/01/27 05:53:48;;;;;;;1999.90;999.90;;;;;;;-0.11;100.00;97691.38;5109136;28;20419;-73
2023/01/27 05:56:18;;;;;;;1999.90;999.90;;;;;;;-0.11;100.00;97686.84;5114202;28;20028;-77
2023/01/27 05:58:43;;;;;;;1999.90;999.90;;;;;;;-0.08;100.00;97690.91;5110911;28;20100;-77
2023/01/27 06:01:33;;;;;;;1999.90;999.90;;;;;;;-0.03;100.00;97693.72;5111212;28;20051;-75
2023/01/27 06:03:59;;;;;;;1999.90;999.90;;;;;;;-0.11;100.00;97694.91;5097311;28;20040;-75
2023/01/27 06:06:26;;;;;;;1999.90;999.90;;;;;;;-0.10;100.00;97693.84;5110460;27;20019;-74
2023/01/27 06:08:52;;;;;;;1999.90;999.90;;;;;;;-0.08;100.00;97697.13;5105075;28;20035;-75
2023/01/27 06:11:19;;;;;;;1999.90;999.90;;;;;;;-0.14;100.00;97697.22;5095346;28;20036;-74
2023/01/27 06:13:45;;;;;;;1999.90;999.90;;;;;;;-0.19;100.00;97689.84;5092207;28;20125;-75
2023/01/27 06:16:13;;;;;;;1999.90;999.90;;;;;;;-0.14;100.00;97698.06;5111158;28;20114;-74
2023/01/27 06:18:38;;;;;;;1999.90;999.90;;;;;;;-0.09;100.00;97690.09;5110412;28;20492;-75
2023/01/27 06:21:08;;;;;;;1999.90;999.90;;;;;;;-0.08;100.00;97697.13;5092288;28;20038;-74
2023/01/27 06:23:33;;;;;;;1999.90;999.90;;;;;;;-0.09;100.00;97690.09;5089856;28;20028;-74
2023/01/27 06:26:08;;;;;;;1999.90;999.90;;;;;;;-0.05;100.00;97685.91;5090567;28;20030;-75
2023/01/27 06:28:34;;;;;;;1999.90;999.90;;;;;;;-0.04;100.00;97690.22;5110010;28;20020;-74
2023/01/27 06:31:14;;;;;;;1999.90;999.90;;;;;;;-0.10;100.00;97691.16;5111654;28;20059;-75
2023/01/27 06:33:40;;;;;;;1999.90;999.90;;;;;;;-0.13;100.00;97694.31;5113946;28;20031;-76
2023/01/27 06:36:09;;;;;;;1999.90;999.90;;;;;;;-0.08;100.00;97689.06;5115002;28;20027;-78
2023/01/27 06:38:35;;;;;;;1999.90;999.90;;;;;;;-0.07;100.00;97693.38;5118768;28;20034;-76
2023/01/27 06:41:00;;;;;;;1999.90;999.90;;;;;;;-0.04;100.00;97698.28;5113539;28;20024;-76
2023/01/27 06:43:26;;;;;;;1999.90;999.90;;;;;;;-0.12;100.00;97690.56;5114571;28;20028;-75
2023/01/27 06:45:52;;;;;;;1999.90;999.90;;;;;;;-0.13;100.00;97699.69;5113691;28;20354;-75
2023/01/27 06:48:18;;;;;;;1999.90;999.90;;;;;;;-0.09;100.00;97705.41;5100654;28;20100;-75
2023/01/27 06:50:44;;;;;;;1999.90;999.90;;;;;;;-0.13;100.00;97707.75;5094261;28;20457;-76
2023/01/27 06:53:09;;;;;;;1999.90;999.90;;;;;;;-0.10;100.00;97701.09;5093356;28;20439;-75
2023/01/27 06:55:40;;;;;;;1999.90;999.90;;;;;;;-0.05;100.00;97696.66;5094131;28;20482;-76
2023/01/27 06:58:10;;;;;;;1999.90;999.90;;;;;;;-0.06;100.00;97700.38;5094032;28;20020;-76
2023/01/27 07:00:37;;;;;;;1999.90;999.90;;;;;;;-0.01;100.00;97708.56;5094083;28;20119;-75
2023/01/27 07:03:03;;;;;;;1999.90;999.90;;;;;;;-0.11;100.00;97700.28;5097646;28;20015;-76
2023/01/27 07:05:28;;;;;;;1999.90;999.90;;;;;;;-0.10;100.00;97704.59;5090283;28;20165;-76
2023/01/27 07:07:53;;;;;;;1999.90;999.90;;;;;;;-0.13;100.00;97704.25;5092907;28;20051;-75
2023/01/27 07:10:19;;;;;;;1999.90;999.90;;;;;;;-0.04;100.00;97714.41;5091916;28;20028;-75
2023/01/27 07:12:44;;;;;;;1999.90;999.90;;;;;;;-0.11;100.00;97708.34;5094117;28;20181;-75
2023/01/27 07:15:10;;;;;;;1999.90;999.90;;;;;;;0.05;100.00;97719.44;5093641;28;20035;-75
2023/01/27 07:17:36;;;;;;;1999.90;999.90;;;;;;;0.09;100.00;97717.91;5091803;28;20487;-76
2023/01/27 07:20:03;;;;;;;1999.90;999.90;;;;;;;0.26;100.00;97721.53;5092901;28;20032;-76
2023/01/27 07:22:28;;;;;;;1999.90;999.90;;;;;;;0.23;100.00;97725.50;5093221;28;20020;-78
2023/01/27 07:24:54;;;;;;;1999.90;999.90;;;;;;;0.30;100.00;97714.63;5093169;28;20366;-76
2023/01/27 07:27:23;;;;;;;1999.90;999.90;;;;;;;0.50;100.00;97720.44;5093109;28;20028;-75
2023/01/27 07:29:49;;;;;;;1999.90;999.90;;;;;;;0.52;100.00;97718.34;5093139;28;20028;-79
2023/01/27 07:32:14;;;;;;;1999.90;999.90;;;;;;;0.71;100.00;97727.88;5089075;28;20038;-76
2023/01/27 07:34:40;;;;;;;1999.90;999.90;;;;;;;0.77;100.00;97734.19;5091695;28;20031;-75
2023/01/27 07:37:05;;;;;;;1999.90;999.90;;;;;;;0.65;100.00;97728.00;5092776;28;20028;-77
2023/01/27 07:39:32;;;;;;;1999.90;999.90;;;;;;;0.65;100.00;97739.59;5091296;28;20036;-75
2023/01/27 07:42:00;;;;;;;1999.90;999.90;;;;;;;0.49;100.00;97718.81;5092050;28;20032;-78
2023/01/27 07:44:25;;;;;;;1999.90;999.90;;;;;;;0.60;100.00;97741.34;5090675;28;20334;-79
2023/01/27 07:46:50;;;;;;;1999.90;999.90;;;;;;;0.51;100.00;97735.50;5090837;28;20032;-77
2023/01/27 07:49:15;;;;;;;1999.90;999.90;;;;;;;0.48;100.00;97731.44;5090779;28;20028;-78
2023/01/27 07:51:41;;;;;;;1999.90;999.90;;;;;;;0.53;100.00;97736.91;5092780;28;20505;-79
2023/01/27 07:54:06;;;;;;;1999.90;999.90;;;;;;;0.61;100.00;97738.44;5090930;28;20036;-74
2023/01/27 07:56:31;;;;;;;1999.90;999.90;;;;;;;0.61;100.00;97738.44;5092485;28;20045;-77
2023/01/27 07:58:57;;;;;;;1999.90;999.90;;;;;;;0.48;100.00;97744.06;5092446;28;20031;-77
2023/01/27 08:01:23;;;;;;;1999.90;999.90;;;;;;;0.61;100.00;97746.50;5101712;28;20031;-77
2023/01/27 08:03:48;;;;;;;1999.90;999.90;;;;;;;0.48;100.00;97754.81;5112165;28;20480;-75
2023/01/27 08:06:13;;;;;;;1999.90;999.90;;;;;;;0.39;100.00;97750.84;5112619;28;20007;-77
2023/01/27 08:08:39;;;;;;;1999.90;999.90;;;;;;;0.51;100.00;97759.72;5112029;28;20050;-76
2023/01/27 08:11:07;;;;;;;1999.90;999.90;;;;;;;0.45;100.00;97752.59;5112305;28;20097;-78
2023/01/27 08:13:34;;;;;;;1999.90;999.90;;;;;;;0.50;100.00;97763.50;5111037;28;20100;-80
2023/01/27 08:16:01;;;;;;;1999.90;999.90;;;;;;;0.45;100.00;97766.88;5111921;28;20037;-78
2023/01/27 08:18:28;;;;;;;1999.90;999.90;;;;;;;0.54;100.00;97765.47;5111935;28;20019;-77
2023/01/27 08:20:54;;;;;;;1999.90;999.90;;;;;;;0.65;100.00;97771.06;5112027;27;20026;-75
2023/01/27 08:23:23;;;;;;;1999.90;999.90;;;;;;;0.60;100.00;97770.94;5112719;28;20023;-76
2023/01/27 08:25:52;;;;;;;1999.90;999.90;;;;;;;0.68;100.00;97771.41;5119345;28;20046;-78
2023/01/27 08:28:20;;;;;;;1999.90;999.90;;;;;;;0.65;100.00;97763.81;5114697;28;20035;-76
2023/01/27 08:30:46;;;;;;;1999.90;999.90;;;;;;;0.60;100.00;97769.06;5112153;28;20023;-76
2023/01/27 08:33:12;;;;;;;1999.90;999.90;;;;;;;0.72;100.00;97790.59;5097559;28;20369;-75
2023/01/27 08:35:41;;;;;;;1999.90;999.90;;;;;;;0.55;100.00;97768.97;5091793;28;20036;-77
2023/01/27 08:38:07;;;;;;;1999.90;999.90;;;;;;;0.65;100.00;97779.97;5113762;27;20055;-79
2023/01/27 08:40:32;;;;;;;1999.90;999.90;;;;;;;0.74;100.00;97777.72;5132864;27;20054;-76
2023/01/27 08:43:00;;;;;;;1999.90;999.90;;;;;;;0.66;100.00;97762.75;5132795;27;20031;-81
2023/01/27 08:45:26;;;;;;;1999.90;999.90;;;;;;;0.80;100.00;97785.66;5129540;27;20039;-75
2023/01/27 08:47:51;;;;;;;1999.90;999.90;;;;;;;1.15;100.00;97790.13;5131420;27;20047;-78
2023/01/27 08:50:16;;;;;;;1999.90;999.90;;;;;;;1.19;100.00;97789.41;5131664;27;20528;-77
2023/01/27 08:52:41;;;;;;;1999.90;999.90;;;;;;;1.36;100.00;97789.47;5132312;27;20076;-76
2023/01/27 08:55:07;;;;;;;1999.90;999.90;;;;;;;0.86;100.00;97808.94;5135073;27;20048;-77
2023/01/27 08:57:32;;;;;;;1999.90;999.90;;;;;;;0.86;100.00;97789.28;5133022;27;20032;-76
2023/01/27 08:59:58;;;;;;;1999.90;999.90;;;;;;;1.01;100.00;97797.66;5132594;27;20027;-77
2023/01/27 09:02:23;;;;;;;1999.90;999.90;;;;;;;0.97;100.00;97794.63;5131007;27;20019;-79
2023/01/27 09:04:49;;;;;;;1999.90;999.90;;;;;;;0.98;100.00;97798.97;5132609;27;20023;-78
2023/01/27 09:07:16;;;;;;;1999.90;999.90;;;;;;;1.05;100.00;97805.03;5130871;27;20139;-76
2023/01/27 09:09:41;;;;;;;1999.90;999.90;;;;;;;1.07;100.00;97811.00;5131796;27;20438;-77
2023/01/27 09:12:06;;;;;;;1999.90;999.90;;;;;;;1.23;100.00;97804.03;5130611;27;20027;-75
2023/01/27 09:14:33;;;;;;;1999.90;999.90;;;;;;;1.21;100.00;97808.03;5131986;27;20031;-75
2023/01/27 09:16:58;;;;;;;1999.90;999.90;;;;;;;1.16;100.00;97810.63;5131926;27;20482;-77
2023/01/27 09:19:23;;;;;;;1999.90;999.90;;;;;;;0.95;100.00;97815.59;5132164;27;20069;-75
2023/01/27 09:21:49;;;;;;;1999.90;999.90;;;;;;;1.03;100.00;97807.13;5131749;27;20110;-76
2023/01/27 09:24:16;;;;;;;1999.90;999.90;;;;;;;1.17;100.00;97823.03;5132198;27;20039;-75
2023/01/27 09:26:42;;;;;;;1999.90;999.90;;;;;;;1.28;100.00;97832.97;5130447;27;20038;-75
2023/01/27 09:29:08;;;;;;;1999.90;999.90;;;;;;;1.21;100.00;97818.81;5132298;27;20048;-78
2023/01/27 09:31:33;;;;;;;1999.90;999.90;;;;;;;1.32;100.00;97815.25;5131799;27;20019;-76
2023/01/27 09:33:58;;;;;;;1999.90;999.90;;;;;;;1.26;100.00;97825.09;5115075;27;20066;-76
2023/01/27 09:36:24;;;;;;;1999.90;999.90;;;;;;;1.50;100.00;97817.78;5111081;28;20027;-76
2023/01/27 09:39:01;;;;;;;1999.90;999.90;;;;;;;1.51;99.66;97803.22;5111879;28;20418;-75
2023/01/27 09:41:41;;;;;;;1999.90;999.90;;;;;;;1.41;99.76;97809.22;5111379;28;20032;-78
2023/01/27 09:44:30;;;;;;;1999.90;999.90;;;;;;;1.48;98.82;97811.78;5110996;28;20053;-76
2023/01/27 09:47:17;;;;;;;1999.90;999.90;;;;;;;1.47;97.89;97820.94;5101527;28;20031;-75
2023/01/27 09:50:04;;;;;;;1999.90;999.90;;;;;;;1.61;97.67;97808.81;5110956;28;20043;-76
2023/01/27 09:53:06;;;;;;;1999.90;999.90;;;;;;;1.60;96.70;97790.97;5110513;28;20050;-76
2023/01/27 09:55:58;;;;;;;1999.90;999.90;;;;;;;1.90;95.32;97807.72;5107927;28;20035;-75
2023/01/27 09:58:41;;;;;;;1999.90;999.90;;;;;;;2.19;93.94;97799.56;5088821;28;20598;-75
2023/01/27 10:01:22;;;;;;;1999.90;999.90;;;;;;;2.70;90.82;97797.34;5090525;28;20032;-75
2023/01/27 10:04:06;;;;;;;1999.90;999.90;;;;;;;4.20;83.02;97807.41;5090390;28;20503;-76
2023/01/27 10:06:47;;;;;;;1999.90;999.90;;;;;;;4.12;80.64;97805.19;5089786;28;20028;-75
2023/01/27 10:09:38;;;;;;;1999.90;999.90;;;;;;;4.53;78.68;97809.03;5092064;28;20484;-74
2023/01/27 10:12:40;;;;;;;1999.90;999.90;;;;;;;4.21;80.30;97808.22;5090793;28;20031;-75
2023/01/27 10:15:40;;;;;;;1999.90;999.90;;;;;;;4.24;80.45;97792.28;5096357;28;20038;-75
2023/01/27 10:18:18;;;;;;;1999.90;999.90;;;;;;;4.14;79.95;97794.06;5090816;28;20111;-75
2023/01/27 10:20:58;;;;;;;1999.90;999.90;;;;;;;3.81;81.64;97784.34;5089181;28;20553;-78
2023/01/27 10:23:43;;;;;;;1999.90;999.90;;;;;;;3.78;81.20;97788.38;5088743;28;20389;-78
2023/01/27 10:26:26;;;;;;;1999.90;999.90;;;;;;;3.45;83.21;97787.72;5090530;28;20087;-76
2023/01/27 10:29:01;;;;;;;1999.90;999.90;;;;;;;3.68;83.44;97773.94;5098346;28;20042;-77
2023/01/27 10:31:53;;;;;;;1999.90;999.90;;;;;;;3.30;84.03;97779.47;5109345;28;20024;-76
2023/01/27 10:34:35;;;;;;;1999.90;999.90;;;;;;;3.44;83.04;97781.53;5109940;28;20047;-77
2023/01/27 10:37:34;;;;;;;1999.90;999.90;;;;;;;3.62;82.55;97769.53;5110690;28;20472;-79
2023/01/27 10:40:18;;;;;;;1999.90;999.90;;;;;;;3.93;80.95;97768.75;5098861;28;20519;-75
2023/01/27 10:42:46;;;;;;;1999.90;999.90;;;;;;;5.02;75.55;97773.53;5108997;28;20400;-79
2023/01/27 10:45:23;;;;;;;1999.90;999.90;;;;;;;6.16;70.97;97765.16;5104720;28;20049;-79
2023/01/27 10:47:57;;;;;;;1999.90;999.90;;;;;;;6.91;67.22;97761.50;5089042;28;20020;-85
2023/01/27 10:50:29;;;;;;;1999.90;999.90;;;;;;;7.70;64.82;97775.06;5090244;28;20602;-83
2023/01/27 10:53:00;;;;;;;1999.90;999.90;;;;;;;5.53;70.38;97760.97;5088770;28;20031;-78
2023/01/27 10:55:35;;;;;;;1999.90;999.90;;;;;;;5.77;70.71;97753.97;5090187;28;20196;-81
2023/01/27 10:58:19;;;;;;;1999.90;999.90;;;;;;;6.75;66.49;97771.63;5101471;28;20014;-81
2023/01/27 11:00:49;;;;;;;1999.90;999.90;;;;;;;5.52;71.07;97748.47;5110609;28;20066;-75
2023/01/27 11:03:24;;;;;;;1999.90;999.90;;;;;;;4.71;73.75;97745.47;5109298;28;20016;-78
2023/01/27 11:05:56;;;;;;;1999.90;999.90;;;;;;;4.20;76.94;97745.16;5110014;28;20035;-79
2023/01/27 11:08:26;;;;;;;1999.90;999.90;;;;;;;5.80;70.97;97745.28;5102885;28;20089;-80
2023/01/27 11:13:39;;;;;;;1999.90;999.90;;;;;;;5.11;71.25;97740.22;5111172;28;20057;-78
2023/01/27 11:16:15;;;;;;;1999.90;999.90;;;;;;;5.55;71.36;97743.34;5110010;28;20058;-81
2023/01/27 11:18:45;;;;;;;1999.90;999.90;;;;;;;5.45;71.23;97731.69;5112421;28;20504;-78
2023/01/27 11:21:20;;;;;;;1999.90;999.90;;;;;;;5.97;68.91;97736.91;5114212;28;20031;-86
2023/01/27 11:23:54;;;;;;;1999.90;999.90;;;;;;;5.63;69.89;97721.13;5112389;28;20023;-81
2023/01/27 11:26:40;;;;;;;1999.90;999.90;;;;;;;5.23;71.77;97729.97;5114225;28;20038;-78
2023/01/27 11:29:14;;;;;;;1999.90;999.90;;;;;;;5.29;71.94;97731.59;5114058;27;20047;-81
2023/01/27 11:31:59;;;;;;;1999.90;999.90;;;;;;;4.62;72.61;97718.06;5113701;28;20072;-80
2023/01/27 11:34:47;;;;;;;1999.90;999.90;;;;;;;4.45;74.04;97719.34;5112990;28;20038;-78
2023/01/27 11:37:21;;;;;;;1999.90;999.90;;;;;;;5.20;71.70;97708.81;5113193;28;20039;-77
2023/01/27 11:39:47;;;;;;;1999.90;999.90;;;;;;;5.17;70.89;97709.34;5107007;28;20033;-77